Kekesteto, Hungary

10:32 AM CET on January 17, 2017 (GMT +0100)
Markaz | | Change Station

Elev 650 ft 47.82 °N, 20.06 °E | Updated 14 seconds ago

Partly Cloudy
Partly Cloudy
32.5 °F
Feels Like 32 °F
N
1.3
Wind Variable Wind from NE
Gusts 2.5 mph

Today
High -- | Low -- °F
--% Chance of Precip.
Yesterday
High -- | Low -- °F
Precip. -- in
Pressure 30.30 in
Visibility -9999.0 miles
Clouds
Windchill 32 °F
Dew Point -14 °F
Humidity 12%
Rainfall 0.00 in
Snow Depth Not available.
7:22 AM 4:17 PM
Waning Gibbous, 74% visible
METAR LHBP 170930Z 36007KT CAVOK M01/M07 Q1026 NOSIG
Pressure 30.30 in
Visibility -9999.0 miles
Clouds
Windchill 32 °F
Dew Point -14 °F
Humidity 12%
Rainfall 0.00 in
Snow Depth Not available.
7:22 AM 4:17 PM
Waning Gibbous, 74% visible
METAR LHBP 170930Z 36007KT CAVOK M01/M07 Q1026 NOSIG

Get Your Daily Forecast Email!

Thanks for signing up!

Be on the lookout for a verification email in your inbox.

You'll start receiving the daily forecast at 8 AM.

×

10-Day Weather Forecast

×

Almanac

Astronomy

Jan. 17, 2017 Rise Set
Actual Time
Civil Twilight
Nautical Twilight
Astronomical Twilight
Moon
Length of Visible Light
Length of Day
Tomorrow will be .
, % of the Moon is Illuminated

Today's Extremes

Country Highs Country Lows

Community

WunderPhotos

Upload Photos

1,962,540 photos uploaded!

WunderBlog® & News

Nearby

Air Quality

  Air Quality AQ Index Pollutant
Not available.

Snow Depth

Station Depth Elevation

Earthquake Activity

City Distance Mag. Time & Date
Minimum magnitude displayed is 2.5.

Coastal Water Temperatures

Place Temperature

Stations

Nearby Weather Stations

Station Location Temp. Windchill Dew Point Humidity Wind Precip. Elev Updated Type